sensor_id;sensor_type;location;lat;lon;timestamp;P1;durP1;ratioP1;P2;durP2;ratioP2
69937;SDS011;57248;47.320;15.998;2022-12-10T00:01:45;18.67;;;7.47;;
69937;SDS011;57248;47.320;15.998;2022-12-10T00:04:11;16.77;;;6.60;;
69937;SDS011;57248;47.320;15.998;2022-12-10T00:06:44;14.95;;;6.28;;
69937;SDS011;57248;47.320;15.998;2022-12-10T00:09:16;18.77;;;6.68;;
69937;SDS011;57248;47.320;15.998;2022-12-10T00:11:50;17.52;;;7.13;;
69937;SDS011;57248;47.320;15.998;2022-12-10T00:14:24;19.20;;;8.50;;
69937;SDS011;57248;47.320;15.998;2022-12-10T00:16:56;20.27;;;8.60;;
69937;SDS011;57248;47.320;15.998;2022-12-10T00:19:28;18.25;;;7.78;;
69937;SDS011;57248;47.320;15.998;2022-12-10T00:22:00;20.02;;;7.95;;
69937;SDS011;57248;47.320;15.998;2022-12-10T00:24:33;17.55;;;7.70;;
69937;SDS011;57248;47.320;15.998;2022-12-10T00:27:05;17.42;;;7.65;;
69937;SDS011;57248;47.320;15.998;2022-12-10T00:29:38;17.63;;;7.10;;
69937;SDS011;57248;47.320;15.998;2022-12-10T00:32:10;20.23;;;8.35;;
69937;SDS011;57248;47.320;15.998;2022-12-10T00:34:42;18.88;;;7.78;;
69937;SDS011;57248;47.320;15.998;2022-12-10T00:37:14;16.85;;;6.90;;
69937;SDS011;57248;47.320;15.998;2022-12-10T00:39:46;17.63;;;7.32;;
69937;SDS011;57248;47.320;15.998;2022-12-10T00:42:18;18.40;;;7.30;;
69937;SDS011;57248;47.320;15.998;2022-12-10T00:44:50;15.77;;;6.20;;
69937;SDS011;57248;47.320;15.998;2022-12-10T00:47:23;16.13;;;6.18;;
69937;SDS011;57248;47.320;15.998;2022-12-10T00:49:55;14.05;;;6.07;;
69937;SDS011;57248;47.320;15.998;2022-12-10T00:52:27;13.88;;;6.07;;
69937;SDS011;57248;47.320;15.998;2022-12-10T00:54:59;17.93;;;7.07;;
69937;SDS011;57248;47.320;15.998;2022-12-10T00:57:31;13.90;;;5.35;;
69937;SDS011;57248;47.320;15.998;2022-12-10T01:00:03;13.95;;;5.43;;
69937;SDS011;57248;47.320;15.998;2022-12-10T01:02:36;15.27;;;5.78;;
69937;SDS011;57248;47.320;15.998;2022-12-10T01:05:08;13.93;;;5.57;;
69937;SDS011;57248;47.320;15.998;2022-12-10T01:07:41;12.27;;;5.03;;
69937;SDS011;57248;47.320;15.998;2022-12-10T01:10:13;16.90;;;6.35;;
69937;SDS011;57248;47.320;15.998;2022-12-10T01:12:45;16.98;;;6.18;;
69937;SDS011;57248;47.320;15.998;2022-12-10T01:15:17;17.92;;;6.82;;
69937;SDS011;57248;47.320;15.998;2022-12-10T01:17:49;18.17;;;6.85;;
69937;SDS011;57248;47.320;15.998;2022-12-10T01:20:21;18.07;;;6.80;;
69937;SDS011;57248;47.320;15.998;2022-12-10T01:22:54;18.25;;;6.60;;
69937;SDS011;57248;47.320;15.998;2022-12-10T01:25:26;18.40;;;6.80;;
69937;SDS011;57248;47.320;15.998;2022-12-10T01:27:58;17.23;;;6.85;;
69937;SDS011;57248;47.320;15.998;2022-12-10T01:30:24;15.80;;;6.67;;
69937;SDS011;57248;47.320;15.998;2022-12-10T01:32:56;20.20;;;8.30;;
69937;SDS011;57248;47.320;15.998;2022-12-10T01:35:28;16.25;;;6.88;;
69937;SDS011;57248;47.320;15.998;2022-12-10T01:38:00;18.33;;;7.17;;
69937;SDS011;57248;47.320;15.998;2022-12-10T01:40:37;17.95;;;7.38;;
69937;SDS011;57248;47.320;15.998;2022-12-10T01:43:16;16.67;;;6.80;;
69937;SDS011;57248;47.320;15.998;2022-12-10T01:45:48;19.65;;;7.72;;
69937;SDS011;57248;47.320;15.998;2022-12-10T01:48:20;19.15;;;7.53;;
69937;SDS011;57248;47.320;15.998;2022-12-10T01:50:52;18.37;;;7.27;;
69937;SDS011;57248;47.320;15.998;2022-12-10T01:53:24;19.10;;;7.68;;
69937;SDS011;57248;47.320;15.998;2022-12-10T01:55:56;18.55;;;7.65;;
69937;SDS011;57248;47.320;15.998;2022-12-10T01:58:36;21.92;;;7.50;;
69937;SDS011;57248;47.320;15.998;2022-12-10T02:10:05;21.02;;;8.68;;
69937;SDS011;57248;47.320;15.998;2022-12-10T02:16:02;21.30;;;8.07;;
69937;SDS011;57248;47.320;15.998;2022-12-10T02:18:55;18.73;;;7.33;;
69937;SDS011;57248;47.320;15.998;2022-12-10T02:21:35;22.52;;;8.50;;
69937;SDS011;57248;47.320;15.998;2022-12-10T02:24:12;21.92;;;8.32;;
69937;SDS011;57248;47.320;15.998;2022-12-10T02:29:48;21.83;;;8.52;;
69937;SDS011;57248;47.320;15.998;2022-12-10T02:32:17;25.53;;;8.97;;
69937;SDS011;57248;47.320;15.998;2022-12-10T02:34:58;35.15;;;12.75;;
69937;SDS011;57248;47.320;15.998;2022-12-10T02:37:34;54.35;;;20.83;;
69937;SDS011;57248;47.320;15.998;2022-12-10T02:40:11;40.38;;;15.38;;
69937;SDS011;57248;47.320;15.998;2022-12-10T02:42:51;30.50;;;11.85;;
69937;SDS011;57248;47.320;15.998;2022-12-10T02:45:24;27.77;;;10.77;;
69937;SDS011;57248;47.320;15.998;2022-12-10T02:48:00;30.13;;;11.25;;
69937;SDS011;57248;47.320;15.998;2022-12-10T02:50:38;29.08;;;10.80;;
69937;SDS011;57248;47.320;15.998;2022-12-10T02:53:11;31.60;;;11.32;;
69937;SDS011;57248;47.320;15.998;2022-12-10T02:56:07;28.55;;;11.02;;
69937;SDS011;57248;47.320;15.998;2022-12-10T02:59:10;25.70;;;9.70;;
69937;SDS011;57248;47.320;15.998;2022-12-10T03:02:16;26.70;;;9.68;;
69937;SDS011;57248;47.320;15.998;2022-12-10T03:04:58;27.02;;;10.30;;
69937;SDS011;57248;47.320;15.998;2022-12-10T03:10:32;22.92;;;9.27;;
69937;SDS011;57248;47.320;15.998;2022-12-10T03:13:09;22.60;;;8.77;;
69937;SDS011;57248;47.320;15.998;2022-12-10T03:15:44;25.45;;;9.88;;
69937;SDS011;57248;47.320;15.998;2022-12-10T03:18:18;27.02;;;10.20;;
69937;SDS011;57248;47.320;15.998;2022-12-10T03:20:54;30.30;;;10.57;;
69937;SDS011;57248;47.320;15.998;2022-12-10T03:23:32;28.60;;;10.27;;
69937;SDS011;57248;47.320;15.998;2022-12-10T03:26:06;23.83;;;9.90;;
69937;SDS011;57248;47.320;15.998;2022-12-10T03:28:34;26.80;;;10.45;;
69937;SDS011;57248;47.320;15.998;2022-12-10T03:31:11;27.05;;;11.18;;
69937;SDS011;57248;47.320;15.998;2022-12-10T03:33:45;25.88;;;10.38;;
69937;SDS011;57248;47.320;15.998;2022-12-10T03:36:19;27.65;;;10.43;;
69937;SDS011;57248;47.320;15.998;2022-12-10T03:38:52;25.80;;;10.57;;
69937;SDS011;57248;47.320;15.998;2022-12-10T03:41:25;26.50;;;10.40;;
69937;SDS011;57248;47.320;15.998;2022-12-10T03:43:58;26.27;;;10.68;;
69937;SDS011;57248;47.320;15.998;2022-12-10T03:46:25;25.83;;;11.23;;
69937;SDS011;57248;47.320;15.998;2022-12-10T03:49:00;28.73;;;11.13;;
69937;SDS011;57248;47.320;15.998;2022-12-10T03:51:28;30.23;;;11.83;;
69937;SDS011;57248;47.320;15.998;2022-12-10T03:54:01;27.73;;;10.75;;
69937;SDS011;57248;47.320;15.998;2022-12-10T03:56:26;22.97;;;10.13;;
69937;SDS011;57248;47.320;15.998;2022-12-10T03:58:58;23.08;;;9.80;;
69937;SDS011;57248;47.320;15.998;2022-12-10T04:01:30;21.48;;;9.48;;
69937;SDS011;57248;47.320;15.998;2022-12-10T04:04:05;23.48;;;8.82;;
69937;SDS011;57248;47.320;15.998;2022-12-10T04:06:37;21.77;;;9.05;;
69937;SDS011;57248;47.320;15.998;2022-12-10T04:09:04;19.87;;;8.17;;
69937;SDS011;57248;47.320;15.998;2022-12-10T04:11:36;19.75;;;7.65;;
69937;SDS011;57248;47.320;15.998;2022-12-10T04:14:11;19.60;;;7.20;;
69937;SDS011;57248;47.320;15.998;2022-12-10T04:17:02;19.75;;;7.57;;
69937;SDS011;57248;47.320;15.998;2022-12-10T04:19:34;19.13;;;8.20;;
69937;SDS011;57248;47.320;15.998;2022-12-10T04:22:06;21.57;;;8.40;;
69937;SDS011;57248;47.320;15.998;2022-12-10T04:24:56;17.67;;;6.80;;
69937;SDS011;57248;47.320;15.998;2022-12-10T04:27:46;16.48;;;6.13;;
69937;SDS011;57248;47.320;15.998;2022-12-10T04:30:18;16.02;;;6.72;;
69937;SDS011;57248;47.320;15.998;2022-12-10T04:32:50;14.55;;;6.32;;
69937;SDS011;57248;47.320;15.998;2022-12-10T04:35:23;13.47;;;5.80;;
69937;SDS011;57248;47.320;15.998;2022-12-10T04:37:55;16.77;;;6.72;;
69937;SDS011;57248;47.320;15.998;2022-12-10T04:40:27;16.75;;;6.28;;
69937;SDS011;57248;47.320;15.998;2022-12-10T04:42:59;15.13;;;5.95;;
69937;SDS011;57248;47.320;15.998;2022-12-10T04:45:33;15.75;;;6.25;;
69937;SDS011;57248;47.320;15.998;2022-12-10T04:48:00;16.37;;;6.63;;
69937;SDS011;57248;47.320;15.998;2022-12-10T04:50:33;14.25;;;6.15;;
69937;SDS011;57248;47.320;15.998;2022-12-10T04:53:05;7.10;;;2.83;;
69937;SDS011;57248;47.320;15.998;2022-12-10T04:55:37;8.23;;;3.78;;
69937;SDS011;57248;47.320;15.998;2022-12-10T04:58:09;12.93;;;5.78;;
69937;SDS011;57248;47.320;15.998;2022-12-10T05:00:48;15.50;;;6.23;;
69937;SDS011;57248;47.320;15.998;2022-12-10T05:03:20;14.68;;;6.13;;
69937;SDS011;57248;47.320;15.998;2022-12-10T05:05:47;15.50;;;6.43;;
69937;SDS011;57248;47.320;15.998;2022-12-10T05:08:19;15.35;;;5.65;;
69937;SDS011;57248;47.320;15.998;2022-12-10T05:10:51;14.68;;;5.72;;
69937;SDS011;57248;47.320;15.998;2022-12-10T05:13:23;13.13;;;5.00;;
69937;SDS011;57248;47.320;15.998;2022-12-10T05:15:55;12.80;;;4.97;;
69937;SDS011;57248;47.320;15.998;2022-12-10T05:18:27;14.85;;;4.95;;
69937;SDS011;57248;47.320;15.998;2022-12-10T05:20:59;10.02;;;4.00;;
69937;SDS011;57248;47.320;15.998;2022-12-10T05:23:32;11.38;;;4.72;;
69937;SDS011;57248;47.320;15.998;2022-12-10T05:26:11;12.07;;;4.60;;
69937;SDS011;57248;47.320;15.998;2022-12-10T05:28:52;12.07;;;4.30;;
69937;SDS011;57248;47.320;15.998;2022-12-10T05:31:27;10.93;;;4.15;;
69937;SDS011;57248;47.320;15.998;2022-12-10T05:34:00;9.10;;;3.88;;
69937;SDS011;57248;47.320;15.998;2022-12-10T05:36:32;9.45;;;3.72;;
69937;SDS011;57248;47.320;15.998;2022-12-10T05:39:04;9.13;;;3.87;;
69937;SDS011;57248;47.320;15.998;2022-12-10T05:41:37;9.50;;;4.07;;
69937;SDS011;57248;47.320;15.998;2022-12-10T05:44:10;8.98;;;3.67;;
69937;SDS011;57248;47.320;15.998;2022-12-10T05:46:42;10.45;;;3.67;;
69937;SDS011;57248;47.320;15.998;2022-12-10T05:49:07;9.87;;;4.03;;
69937;SDS011;57248;47.320;15.998;2022-12-10T05:51:39;9.00;;;3.97;;
69937;SDS011;57248;47.320;15.998;2022-12-10T05:54:11;8.13;;;3.40;;
69937;SDS011;57248;47.320;15.998;2022-12-10T05:56:50;10.48;;;4.07;;
69937;SDS011;57248;47.320;15.998;2022-12-10T05:59:22;10.00;;;4.30;;
69937;SDS011;57248;47.320;15.998;2022-12-10T06:02:01;10.68;;;4.20;;
69937;SDS011;57248;47.320;15.998;2022-12-10T06:04:33;11.05;;;4.38;;
69937;SDS011;57248;47.320;15.998;2022-12-10T06:07:05;9.18;;;3.80;;
69937;SDS011;57248;47.320;15.998;2022-12-10T06:09:37;9.25;;;3.83;;
69937;SDS011;57248;47.320;15.998;2022-12-10T06:12:09;9.30;;;3.50;;
69937;SDS011;57248;47.320;15.998;2022-12-10T06:14:41;9.55;;;3.85;;
69937;SDS011;57248;47.320;15.998;2022-12-10T06:17:13;8.85;;;4.05;;
69937;SDS011;57248;47.320;15.998;2022-12-10T06:19:45;9.10;;;3.92;;
69937;SDS011;57248;47.320;15.998;2022-12-10T06:22:17;8.23;;;3.67;;
69937;SDS011;57248;47.320;15.998;2022-12-10T06:24:49;10.37;;;4.50;;
69937;SDS011;57248;47.320;15.998;2022-12-10T06:27:21;9.68;;;4.18;;
69937;SDS011;57248;47.320;15.998;2022-12-10T06:29:54;9.38;;;4.07;;
69937;SDS011;57248;47.320;15.998;2022-12-10T06:32:26;9.65;;;4.10;;
69937;SDS011;57248;47.320;15.998;2022-12-10T06:34:58;9.32;;;4.25;;
69937;SDS011;57248;47.320;15.998;2022-12-10T06:37:31;10.03;;;3.87;;
69937;SDS011;57248;47.320;15.998;2022-12-10T06:39:57;7.90;;;3.55;;
69937;SDS011;57248;47.320;15.998;2022-12-10T06:42:29;8.77;;;3.87;;
69937;SDS011;57248;47.320;15.998;2022-12-10T06:45:01;8.82;;;3.95;;
69937;SDS011;57248;47.320;15.998;2022-12-10T06:47:26;8.57;;;3.80;;
69937;SDS011;57248;47.320;15.998;2022-12-10T06:49:59;7.00;;;3.10;;
69937;SDS011;57248;47.320;15.998;2022-12-10T06:52:31;11.13;;;4.43;;
69937;SDS011;57248;47.320;15.998;2022-12-10T06:54:56;9.10;;;3.90;;
69937;SDS011;57248;47.320;15.998;2022-12-10T06:57:35;9.05;;;3.90;;
69937;SDS011;57248;47.320;15.998;2022-12-10T07:00:08;8.75;;;3.40;;
69937;SDS011;57248;47.320;15.998;2022-12-10T07:02:42;7.25;;;2.85;;
69937;SDS011;57248;47.320;15.998;2022-12-10T07:05:14;7.45;;;3.30;;
69937;SDS011;57248;47.320;15.998;2022-12-10T07:07:46;7.63;;;2.97;;
69937;SDS011;57248;47.320;15.998;2022-12-10T07:10:18;7.90;;;3.08;;
69937;SDS011;57248;47.320;15.998;2022-12-10T07:12:50;14.18;;;7.57;;
69937;SDS011;57248;47.320;15.998;2022-12-10T07:15:15;13.30;;;6.50;;
69937;SDS011;57248;47.320;15.998;2022-12-10T07:17:47;10.85;;;4.78;;
69937;SDS011;57248;47.320;15.998;2022-12-10T07:20:19;9.57;;;4.43;;
69937;SDS011;57248;47.320;15.998;2022-12-10T07:22:51;10.10;;;3.80;;
69937;SDS011;57248;47.320;15.998;2022-12-10T07:25:24;11.13;;;4.10;;
69937;SDS011;57248;47.320;15.998;2022-12-10T07:27:50;9.35;;;3.97;;
69937;SDS011;57248;47.320;15.998;2022-12-10T07:30:22;9.13;;;3.97;;
69937;SDS011;57248;47.320;15.998;2022-12-10T07:32:54;9.93;;;4.57;;
69937;SDS011;57248;47.320;15.998;2022-12-10T07:35:26;10.07;;;4.68;;
69937;SDS011;57248;47.320;15.998;2022-12-10T07:37:58;9.70;;;4.47;;
69937;SDS011;57248;47.320;15.998;2022-12-10T07:40:30;10.00;;;4.72;;
69937;SDS011;57248;47.320;15.998;2022-12-10T07:43:02;10.40;;;4.80;;
69937;SDS011;57248;47.320;15.998;2022-12-10T07:45:35;12.23;;;4.70;;
69937;SDS011;57248;47.320;15.998;2022-12-10T07:48:07;11.10;;;4.72;;
69937;SDS011;57248;47.320;15.998;2022-12-10T07:50:40;8.00;;;3.77;;
69937;SDS011;57248;47.320;15.998;2022-12-10T07:53:05;9.13;;;4.30;;
69937;SDS011;57248;47.320;15.998;2022-12-10T07:55:38;9.00;;;4.00;;
69937;SDS011;57248;47.320;15.998;2022-12-10T07:58:10;8.98;;;4.30;;
69937;SDS011;57248;47.320;15.998;2022-12-10T08:00:50;10.18;;;4.18;;
69937;SDS011;57248;47.320;15.998;2022-12-10T08:03:22;10.00;;;4.45;;
69937;SDS011;57248;47.320;15.998;2022-12-10T08:06:02;10.00;;;4.32;;
69937;SDS011;57248;47.320;15.998;2022-12-10T08:08:37;9.50;;;4.40;;
69937;SDS011;57248;47.320;15.998;2022-12-10T08:11:10;9.25;;;4.07;;
69937;SDS011;57248;47.320;15.998;2022-12-10T08:13:37;10.30;;;4.60;;
69937;SDS011;57248;47.320;15.998;2022-12-10T08:16:17;48.50;;;22.25;;
69937;SDS011;57248;47.320;15.998;2022-12-10T08:18:50;28.02;;;12.90;;
69937;SDS011;57248;47.320;15.998;2022-12-10T08:21:23;11.83;;;5.30;;
69937;SDS011;57248;47.320;15.998;2022-12-10T08:23:57;11.20;;;4.72;;
69937;SDS011;57248;47.320;15.998;2022-12-10T08:26:31;11.27;;;4.53;;
69937;SDS011;57248;47.320;15.998;2022-12-10T08:29:04;17.73;;;7.43;;
69937;SDS011;57248;47.320;15.998;2022-12-10T08:31:36;16.02;;;6.97;;
69937;SDS011;57248;47.320;15.998;2022-12-10T08:34:15;15.37;;;6.90;;
69937;SDS011;57248;47.320;15.998;2022-12-10T08:36:50;12.55;;;5.63;;
69937;SDS011;57248;47.320;15.998;2022-12-10T08:39:22;23.75;;;10.65;;
69937;SDS011;57248;47.320;15.998;2022-12-10T08:41:54;21.08;;;9.75;;
69937;SDS011;57248;47.320;15.998;2022-12-10T08:44:27;14.82;;;6.40;;
69937;SDS011;57248;47.320;15.998;2022-12-10T08:46:59;12.17;;;5.33;;
69937;SDS011;57248;47.320;15.998;2022-12-10T08:49:31;12.02;;;5.45;;
69937;SDS011;57248;47.320;15.998;2022-12-10T08:52:19;11.48;;;5.55;;
69937;SDS011;57248;47.320;15.998;2022-12-10T08:54:51;13.50;;;4.90;;
69937;SDS011;57248;47.320;15.998;2022-12-10T08:57:37;12.10;;;5.05;;
69937;SDS011;57248;47.320;15.998;2022-12-10T09:00:09;12.13;;;5.53;;
69937;SDS011;57248;47.320;15.998;2022-12-10T09:02:42;16.02;;;6.60;;
69937;SDS011;57248;47.320;15.998;2022-12-10T09:05:14;23.92;;;12.73;;
69937;SDS011;57248;47.320;15.998;2022-12-10T09:07:46;37.40;;;18.65;;
69937;SDS011;57248;47.320;15.998;2022-12-10T09:10:18;46.72;;;20.90;;
69937;SDS011;57248;47.320;15.998;2022-12-10T09:12:51;19.80;;;9.27;;
69937;SDS011;57248;47.320;15.998;2022-12-10T09:15:24;13.30;;;6.00;;
69937;SDS011;57248;47.320;15.998;2022-12-10T09:17:56;10.32;;;3.35;;
69937;SDS011;57248;47.320;15.998;2022-12-10T09:20:28;13.52;;;5.22;;
69937;SDS011;57248;47.320;15.998;2022-12-10T09:23:00;11.60;;;4.75;;
69937;SDS011;57248;47.320;15.998;2022-12-10T09:25:32;11.33;;;4.57;;
69937;SDS011;57248;47.320;15.998;2022-12-10T09:28:04;10.95;;;4.70;;
69937;SDS011;57248;47.320;15.998;2022-12-10T09:30:36;12.68;;;5.68;;
69937;SDS011;57248;47.320;15.998;2022-12-10T09:33:08;17.33;;;7.95;;
69937;SDS011;57248;47.320;15.998;2022-12-10T09:35:33;11.97;;;5.07;;
69937;SDS011;57248;47.320;15.998;2022-12-10T09:38:06;10.45;;;4.60;;
69937;SDS011;57248;47.320;15.998;2022-12-10T09:40:43;12.75;;;5.90;;
69937;SDS011;57248;47.320;15.998;2022-12-10T09:52:03;6.22;;;2.55;;
69937;SDS011;57248;47.320;15.998;2022-12-10T09:54:38;6.35;;;2.70;;
69937;SDS011;57248;47.320;15.998;2022-12-10T10:00:20;6.72;;;2.75;;
69937;SDS011;57248;47.320;15.998;2022-12-10T10:03:02;6.57;;;2.65;;
69937;SDS011;57248;47.320;15.998;2022-12-10T10:05:46;7.03;;;3.25;;
69937;SDS011;57248;47.320;15.998;2022-12-10T10:11:14;6.37;;;3.07;;
69937;SDS011;57248;47.320;15.998;2022-12-10T10:16:36;5.53;;;2.28;;
69937;SDS011;57248;47.320;15.998;2022-12-10T10:19:21;6.25;;;2.50;;
69937;SDS011;57248;47.320;15.998;2022-12-10T10:21:59;5.72;;;2.17;;
69937;SDS011;57248;47.320;15.998;2022-12-10T10:24:36;5.23;;;2.10;;
69937;SDS011;57248;47.320;15.998;2022-12-10T10:27:16;5.13;;;2.25;;
69937;SDS011;57248;47.320;15.998;2022-12-10T10:29:53;5.88;;;2.50;;
69937;SDS011;57248;47.320;15.998;2022-12-10T10:35:09;6.63;;;2.78;;
69937;SDS011;57248;47.320;15.998;2022-12-10T10:38:12;6.27;;;2.60;;
69937;SDS011;57248;47.320;15.998;2022-12-10T10:40:52;7.05;;;2.90;;
69937;SDS011;57248;47.320;15.998;2022-12-10T10:46:22;6.28;;;2.47;;
69937;SDS011;57248;47.320;15.998;2022-12-10T10:49:11;6.57;;;2.60;;
69937;SDS011;57248;47.320;15.998;2022-12-10T10:51:50;5.87;;;2.80;;
69937;SDS011;57248;47.320;15.998;2022-12-10T10:54:37;6.35;;;2.85;;
69937;SDS011;57248;47.320;15.998;2022-12-10T11:00:06;6.72;;;2.75;;
69937;SDS011;57248;47.320;15.998;2022-12-10T11:02:57;5.32;;;2.50;;
69937;SDS011;57248;47.320;15.998;2022-12-10T11:05:30;6.20;;;2.70;;
69937;SDS011;57248;47.320;15.998;2022-12-10T11:08:03;6.20;;;2.72;;
69937;SDS011;57248;47.320;15.998;2022-12-10T11:10:46;6.88;;;3.00;;
69937;SDS011;57248;47.320;15.998;2022-12-10T11:13:23;5.43;;;2.50;;
69937;SDS011;57248;47.320;15.998;2022-12-10T11:16:09;7.38;;;2.97;;
69937;SDS011;57248;47.320;15.998;2022-12-10T11:19:04;7.50;;;3.17;;
69937;SDS011;57248;47.320;15.998;2022-12-10T11:21:36;12.85;;;4.63;;
69937;SDS011;57248;47.320;15.998;2022-12-10T11:24:11;8.23;;;3.97;;
69937;SDS011;57248;47.320;15.998;2022-12-10T11:26:52;5.93;;;2.40;;
69937;SDS011;57248;47.320;15.998;2022-12-10T11:35:19;5.97;;;2.25;;
69937;SDS011;57248;47.320;15.998;2022-12-10T11:46:50;3.83;;;1.50;;
69937;SDS011;57248;47.320;15.998;2022-12-10T11:49:56;4.45;;;1.42;;
69937;SDS011;57248;47.320;15.998;2022-12-10T11:52:37;4.85;;;1.60;;
69937;SDS011;57248;47.320;15.998;2022-12-10T11:58:11;4.63;;;1.90;;
69937;SDS011;57248;47.320;15.998;2022-12-10T12:01:04;4.30;;;1.50;;
69937;SDS011;57248;47.320;15.998;2022-12-10T12:06:54;4.88;;;1.80;;
69937;SDS011;57248;47.320;15.998;2022-12-10T12:15:04;4.93;;;1.83;;
69937;SDS011;57248;47.320;15.998;2022-12-10T12:17:49;5.68;;;2.15;;
69937;SDS011;57248;47.320;15.998;2022-12-10T12:20:30;6.55;;;2.40;;
69937;SDS011;57248;47.320;15.998;2022-12-10T12:23:10;7.30;;;3.30;;
69937;SDS011;57248;47.320;15.998;2022-12-10T12:25:49;7.13;;;3.13;;
69937;SDS011;57248;47.320;15.998;2022-12-10T12:31:07;6.30;;;2.80;;
69937;SDS011;57248;47.320;15.998;2022-12-10T12:33:59;7.60;;;3.00;;
69937;SDS011;57248;47.320;15.998;2022-12-10T12:36:36;7.97;;;3.00;;
69937;SDS011;57248;47.320;15.998;2022-12-10T12:39:19;5.90;;;2.67;;
69937;SDS011;57248;47.320;15.998;2022-12-10T12:45:19;5.38;;;1.90;;
69937;SDS011;57248;47.320;15.998;2022-12-10T12:48:09;6.18;;;2.38;;
69937;SDS011;57248;47.320;15.998;2022-12-10T12:53:21;5.18;;;2.00;;
69937;SDS011;57248;47.320;15.998;2022-12-10T13:01:26;5.20;;;2.05;;
69937;SDS011;57248;47.320;15.998;2022-12-10T13:04:11;6.18;;;2.20;;
69937;SDS011;57248;47.320;15.998;2022-12-10T13:07:08;5.70;;;2.30;;
69937;SDS011;57248;47.320;15.998;2022-12-10T13:09:46;6.10;;;2.37;;
69937;SDS011;57248;47.320;15.998;2022-12-10T13:12:31;6.35;;;2.33;;
69937;SDS011;57248;47.320;15.998;2022-12-10T13:15:19;6.65;;;2.33;;
69937;SDS011;57248;47.320;15.998;2022-12-10T13:20:49;6.13;;;2.38;;
69937;SDS011;57248;47.320;15.998;2022-12-10T13:25:57;6.20;;;2.38;;
69937;SDS011;57248;47.320;15.998;2022-12-10T13:28:38;7.35;;;2.70;;
69937;SDS011;57248;47.320;15.998;2022-12-10T13:31:20;6.38;;;2.50;;
69937;SDS011;57248;47.320;15.998;2022-12-10T13:36:34;5.70;;;2.07;;
69937;SDS011;57248;47.320;15.998;2022-12-10T13:50:14;6.37;;;2.50;;
69937;SDS011;57248;47.320;15.998;2022-12-10T14:07:59;7.68;;;2.92;;
69937;SDS011;57248;47.320;15.998;2022-12-10T14:10:34;8.63;;;3.50;;
69937;SDS011;57248;47.320;15.998;2022-12-10T14:13:10;7.80;;;3.60;;
69937;SDS011;57248;47.320;15.998;2022-12-10T14:15:47;7.82;;;3.65;;
69937;SDS011;57248;47.320;15.998;2022-12-10T14:18:26;8.97;;;3.67;;
69937;SDS011;57248;47.320;15.998;2022-12-10T14:21:01;8.73;;;3.85;;
69937;SDS011;57248;47.320;15.998;2022-12-10T14:23:36;9.10;;;3.67;;
69937;SDS011;57248;47.320;15.998;2022-12-10T14:26:19;9.10;;;3.72;;
69937;SDS011;57248;47.320;15.998;2022-12-10T14:29:00;10.40;;;4.25;;
69937;SDS011;57248;47.320;15.998;2022-12-10T14:31:53;10.13;;;4.07;;
69937;SDS011;57248;47.320;15.998;2022-12-10T14:34:27;19.23;;;7.93;;
69937;SDS011;57248;47.320;15.998;2022-12-10T14:36:54;25.27;;;9.68;;
69937;SDS011;57248;47.320;15.998;2022-12-10T14:39:29;28.30;;;11.05;;
69937;SDS011;57248;47.320;15.998;2022-12-10T14:41:58;24.08;;;10.10;;
69937;SDS011;57248;47.320;15.998;2022-12-10T14:44:34;23.37;;;9.33;;
69937;SDS011;57248;47.320;15.998;2022-12-10T14:47:14;15.00;;;6.18;;
69937;SDS011;57248;47.320;15.998;2022-12-10T14:49:54;12.80;;;5.78;;
69937;SDS011;57248;47.320;15.998;2022-12-10T14:52:31;15.52;;;6.25;;
69937;SDS011;57248;47.320;15.998;2022-12-10T14:55:11;52.75;;;16.83;;
69937;SDS011;57248;47.320;15.998;2022-12-10T14:57:56;53.67;;;21.70;;
69937;SDS011;57248;47.320;15.998;2022-12-10T15:00:32;30.95;;;12.45;;
69937;SDS011;57248;47.320;15.998;2022-12-10T15:03:08;24.38;;;12.40;;
69937;SDS011;57248;47.320;15.998;2022-12-10T15:05:53;27.98;;;13.73;;
69937;SDS011;57248;47.320;15.998;2022-12-10T15:08:26;53.22;;;30.20;;
69937;SDS011;57248;47.320;15.998;2022-12-10T15:11:00;25.73;;;13.07;;
69937;SDS011;57248;47.320;15.998;2022-12-10T15:13:35;12.75;;;6.22;;
69937;SDS011;57248;47.320;15.998;2022-12-10T15:16:18;11.73;;;4.97;;
69937;SDS011;57248;47.320;15.998;2022-12-10T15:18:53;11.35;;;4.90;;
69937;SDS011;57248;47.320;15.998;2022-12-10T15:21:26;13.00;;;4.85;;
69937;SDS011;57248;47.320;15.998;2022-12-10T15:24:15;12.53;;;4.90;;
69937;SDS011;57248;47.320;15.998;2022-12-10T15:26:49;11.95;;;5.05;;
69937;SDS011;57248;47.320;15.998;2022-12-10T15:31:59;13.45;;;5.45;;
69937;SDS011;57248;47.320;15.998;2022-12-10T15:34:59;12.98;;;5.10;;
69937;SDS011;57248;47.320;15.998;2022-12-10T15:37:37;12.23;;;5.47;;
69937;SDS011;57248;47.320;15.998;2022-12-10T15:43:13;12.00;;;5.15;;
69937;SDS011;57248;47.320;15.998;2022-12-10T15:45:56;14.38;;;5.55;;
69937;SDS011;57248;47.320;15.998;2022-12-10T15:48:30;13.85;;;5.75;;
69937;SDS011;57248;47.320;15.998;2022-12-10T15:51:10;14.67;;;5.53;;
69937;SDS011;57248;47.320;15.998;2022-12-10T15:53:42;15.00;;;6.50;;
69937;SDS011;57248;47.320;15.998;2022-12-10T15:56:15;42.38;;;19.42;;
69937;SDS011;57248;47.320;15.998;2022-12-10T15:58:48;16.40;;;7.57;;
69937;SDS011;57248;47.320;15.998;2022-12-10T16:01:27;13.25;;;6.53;;
69937;SDS011;57248;47.320;15.998;2022-12-10T16:03:59;10.67;;;4.40;;
69937;SDS011;57248;47.320;15.998;2022-12-10T16:06:31;10.77;;;4.63;;
69937;SDS011;57248;47.320;15.998;2022-12-10T16:09:04;15.43;;;6.07;;
69937;SDS011;57248;47.320;15.998;2022-12-10T16:11:36;12.57;;;5.07;;
69937;SDS011;57248;47.320;15.998;2022-12-10T16:14:08;12.63;;;5.97;;
69937;SDS011;57248;47.320;15.998;2022-12-10T16:16:41;9.93;;;4.20;;
69937;SDS011;57248;47.320;15.998;2022-12-10T16:19:13;11.35;;;4.05;;
69937;SDS011;57248;47.320;15.998;2022-12-10T16:21:47;11.13;;;4.70;;
69937;SDS011;57248;47.320;15.998;2022-12-10T16:24:20;10.48;;;4.80;;
69937;SDS011;57248;47.320;15.998;2022-12-10T16:26:52;13.77;;;5.65;;
69937;SDS011;57248;47.320;15.998;2022-12-10T16:29:24;13.73;;;6.73;;
69937;SDS011;57248;47.320;15.998;2022-12-10T16:31:57;14.75;;;6.80;;
69937;SDS011;57248;47.320;15.998;2022-12-10T16:34:29;19.25;;;9.15;;
69937;SDS011;57248;47.320;15.998;2022-12-10T16:37:01;18.75;;;9.18;;
69937;SDS011;57248;47.320;15.998;2022-12-10T16:39:33;22.25;;;11.90;;
69937;SDS011;57248;47.320;15.998;2022-12-10T16:42:05;19.33;;;9.53;;
69937;SDS011;57248;47.320;15.998;2022-12-10T16:44:30;15.77;;;8.07;;
69937;SDS011;57248;47.320;15.998;2022-12-10T16:47:10;14.30;;;6.20;;
69937;SDS011;57248;47.320;15.998;2022-12-10T16:49:44;14.65;;;7.38;;
69937;SDS011;57248;47.320;15.998;2022-12-10T16:52:15;11.13;;;5.30;;
69937;SDS011;57248;47.320;15.998;2022-12-10T16:54:48;12.23;;;5.00;;
69937;SDS011;57248;47.320;15.998;2022-12-10T16:57:20;12.48;;;4.30;;
69937;SDS011;57248;47.320;15.998;2022-12-10T16:59:59;11.27;;;4.28;;
69937;SDS011;57248;47.320;15.998;2022-12-10T17:02:32;9.45;;;4.47;;
69937;SDS011;57248;47.320;15.998;2022-12-10T17:05:08;10.18;;;4.78;;
69937;SDS011;57248;47.320;15.998;2022-12-10T17:07:47;12.70;;;5.33;;
69937;SDS011;57248;47.320;15.998;2022-12-10T17:10:19;14.25;;;6.35;;
69937;SDS011;57248;47.320;15.998;2022-12-10T17:13:11;15.95;;;6.55;;
69937;SDS011;57248;47.320;15.998;2022-12-10T17:15:51;12.18;;;5.78;;